Etusivu
METAR-TAF:

METAR-TAF

Lentoasemat :

Portage Glacier, Alaska, Yhdysvallat

Leveyspiiri: 60-47N, Pituuspiiri: 148-50W, korkeus merenpinnasta: 29 m

Tämänhetkinen sää

Tämä raportti tehtiin 37 minuuttia sitten, kello 02.53 UTC
Tuuli 6 kn lännestä/luoteesta
Lämpötila 2°C
Kosteus 93%
Ilmanpaine 993 hPa
Näkyvyys: 16.1 km
Pilvistä 300 ft:n korkeudessa

METAR: PATO 210253Z AUTO 30006KT 10SM OVC003 02/01 A2932 RMK AO2 SLP928 T00170011 57002 TSNO $

Aika: 18:30 (03:30 UTC)


TAF: puuttuu

Säähavainnot ja -ennusteet yli 4000 lentoasemalta (METAR- ja TAF-raportit).

Käytössä olevat sääasemat on merkitty karttaan keltaisilla ja punaisilla pisteillä.

Aseta hiiri pisteen päälle nähdäksesi sääaseman nimen.

Klikkaa sitten nähdäksesi säähavainnot ja -ennusteet.

Kartan vaihtaminen: klikkaa mustalla rastilla varustettuja vihreitä pisteitä, niin voit zoomata sisään; viivalla varustettua vihreää pistettä, niin voit zoomata ulos tai vihreitä nuolia, niin pääset viereisille kartoille.


METAR-TAF: